sensor_id;sensor_type;location;lat;lon;timestamp;pressure;altitude;pressure_sealevel;temperature;humidity
44351;BME280;62766;62.622;17.912;2023-03-23T00:00:18;97981.53;;;1.40;72.24
44351;BME280;62766;62.622;17.912;2023-03-23T00:02:47;97979.87;;;1.42;72.38
44351;BME280;62766;62.622;17.912;2023-03-23T00:05:15;97981.11;;;1.30;72.22
44351;BME280;62766;62.622;17.912;2023-03-23T00:07:44;97991.54;;;1.28;72.29
44351;BME280;62766;62.622;17.912;2023-03-23T00:10:12;97995.79;;;1.32;72.31
44351;BME280;62766;62.622;17.912;2023-03-23T00:12:40;97994.80;;;1.25;72.51
44351;BME280;62766;62.622;17.912;2023-03-23T00:15:09;97994.04;;;1.25;72.72
44351;BME280;62766;62.622;17.912;2023-03-23T00:17:38;97995.48;;;1.19;73.00
44351;BME280;62766;62.622;17.912;2023-03-23T00:20:08;97989.68;;;1.14;72.97
44351;BME280;62766;62.622;17.912;2023-03-23T00:22:36;97992.29;;;1.07;72.99
44351;BME280;62766;62.622;17.912;2023-03-23T00:25:05;97990.68;;;0.96;73.30
44351;BME280;62766;62.622;17.912;2023-03-23T00:27:33;97992.27;;;0.82;73.34
44351;BME280;62766;62.622;17.912;2023-03-23T00:30:02;97986.77;;;0.89;73.39
44351;BME280;62766;62.622;17.912;2023-03-23T00:32:32;97990.12;;;0.84;73.43
44351;BME280;62766;62.622;17.912;2023-03-23T00:35:00;97990.62;;;0.79;73.71
44351;BME280;62766;62.622;17.912;2023-03-23T00:37:30;97990.11;;;0.71;73.84
44351;BME280;62766;62.622;17.912;2023-03-23T00:39:59;97986.70;;;0.92;73.80
44351;BME280;62766;62.622;17.912;2023-03-23T00:42:28;97986.26;;;0.77;74.00
44351;BME280;62766;62.622;17.912;2023-03-23T00:44:56;97988.27;;;0.79;74.00
44351;BME280;62766;62.622;17.912;2023-03-23T00:47:24;97993.72;;;0.68;74.11
44351;BME280;62766;62.622;17.912;2023-03-23T00:49:53;97998.50;;;0.77;74.08
44351;BME280;62766;62.622;17.912;2023-03-23T00:52:22;98000.45;;;0.75;73.94
44351;BME280;62766;62.622;17.912;2023-03-23T00:54:50;98002.74;;;0.71;74.10
44351;BME280;62766;62.622;17.912;2023-03-23T00:57:18;97993.90;;;0.76;73.84
44351;BME280;62766;62.622;17.912;2023-03-23T00:59:47;97997.03;;;0.90;73.60
44351;BME280;62766;62.622;17.912;2023-03-23T01:02:15;97995.00;;;0.80;73.30
44351;BME280;62766;62.622;17.912;2023-03-23T01:04:44;97997.19;;;0.71;73.35
44351;BME280;62766;62.622;17.912;2023-03-23T01:07:12;97997.16;;;0.65;73.22
44351;BME280;62766;62.622;17.912;2023-03-23T01:09:41;97994.65;;;0.63;73.46
44351;BME280;62766;62.622;17.912;2023-03-23T01:12:09;97994.88;;;0.67;73.48
44351;BME280;62766;62.622;17.912;2023-03-23T01:14:38;97994.55;;;0.72;73.36
44351;BME280;62766;62.622;17.912;2023-03-23T01:17:06;98000.98;;;0.61;73.15
44351;BME280;62766;62.622;17.912;2023-03-23T01:19:34;97995.60;;;0.67;73.20
44351;BME280;62766;62.622;17.912;2023-03-23T01:22:03;97995.21;;;0.67;73.01
44351;BME280;62766;62.622;17.912;2023-03-23T01:24:31;97996.08;;;0.68;72.90
44351;BME280;62766;62.622;17.912;2023-03-23T01:27:00;98002.40;;;0.52;73.32
44351;BME280;62766;62.622;17.912;2023-03-23T01:29:29;98004.55;;;0.51;73.56
44351;BME280;62766;62.622;17.912;2023-03-23T01:31:59;98004.03;;;0.58;73.47
44351;BME280;62766;62.622;17.912;2023-03-23T01:34:27;98010.88;;;0.54;72.98
44351;BME280;62766;62.622;17.912;2023-03-23T01:36:56;98008.41;;;0.44;72.87
44351;BME280;62766;62.622;17.912;2023-03-23T01:39:24;98006.72;;;0.54;72.77
44351;BME280;62766;62.622;17.912;2023-03-23T01:41:53;98010.06;;;0.44;72.98
44351;BME280;62766;62.622;17.912;2023-03-23T01:49:03;98006.06;;;0.43;72.80
44351;BME280;62766;62.622;17.912;2023-03-23T01:51:31;98006.38;;;0.33;73.13
44351;BME280;62766;62.622;17.912;2023-03-23T01:54:03;98003.57;;;0.34;73.14
44351;BME280;62766;62.622;17.912;2023-03-23T01:56:38;98006.67;;;0.26;73.37
44351;BME280;62766;62.622;17.912;2023-03-23T01:59:08;98004.82;;;0.28;73.50
44351;BME280;62766;62.622;17.912;2023-03-23T02:01:37;98008.26;;;0.09;74.02
44351;BME280;62766;62.622;17.912;2023-03-23T02:04:06;98009.06;;;0.15;74.41
44351;BME280;62766;62.622;17.912;2023-03-23T02:06:34;98009.06;;;0.00;74.51
44351;BME280;62766;62.622;17.912;2023-03-23T02:09:03;98012.95;;;0.05;74.52
44351;BME280;62766;62.622;17.912;2023-03-23T02:11:32;98017.02;;;0.14;74.49
44351;BME280;62766;62.622;17.912;2023-03-23T02:14:02;98015.81;;;0.10;74.38
44351;BME280;62766;62.622;17.912;2023-03-23T02:16:34;98016.78;;;0.07;74.05
44351;BME280;62766;62.622;17.912;2023-03-23T02:19:17;98018.25;;;0.19;73.93
44351;BME280;62766;62.622;17.912;2023-03-23T02:22:05;98017.96;;;0.16;73.66
44351;BME280;62766;62.622;17.912;2023-03-23T02:24:51;98023.97;;;0.19;73.32
44351;BME280;62766;62.622;17.912;2023-03-23T02:27:36;98018.32;;;0.24;72.75
44351;BME280;62766;62.622;17.912;2023-03-23T02:30:15;98023.89;;;0.17;72.84
44351;BME280;62766;62.622;17.912;2023-03-23T02:33:17;98026.71;;;0.31;72.84
44351;BME280;62766;62.622;17.912;2023-03-23T02:35:56;98032.57;;;0.32;72.55
44351;BME280;62766;62.622;17.912;2023-03-23T02:38:31;98032.90;;;0.37;72.12
44351;BME280;62766;62.622;17.912;2023-03-23T02:41:02;98036.35;;;0.32;71.67
44351;BME280;62766;62.622;17.912;2023-03-23T02:43:36;98036.34;;;0.35;71.65
44351;BME280;62766;62.622;17.912;2023-03-23T02:46:09;98042.77;;;0.53;71.46
44351;BME280;62766;62.622;17.912;2023-03-23T02:48:39;98047.22;;;0.42;71.36
44351;BME280;62766;62.622;17.912;2023-03-23T02:51:11;98044.00;;;0.56;70.98
44351;BME280;62766;62.622;17.912;2023-03-23T02:53:42;98041.54;;;0.61;70.90
44351;BME280;62766;62.622;17.912;2023-03-23T02:56:12;98047.25;;;0.55;70.48
44351;BME280;62766;62.622;17.912;2023-03-23T02:58:42;98051.67;;;0.57;70.32
44351;BME280;62766;62.622;17.912;2023-03-23T03:01:46;98056.60;;;0.63;70.40
44351;BME280;62766;62.622;17.912;2023-03-23T03:04:18;98066.28;;;0.47;69.97
44351;BME280;62766;62.622;17.912;2023-03-23T03:06:55;98071.57;;;0.65;69.82
44351;BME280;62766;62.622;17.912;2023-03-23T03:09:32;98073.86;;;0.65;69.82
44351;BME280;62766;62.622;17.912;2023-03-23T03:12:09;98077.54;;;0.56;69.44
44351;BME280;62766;62.622;17.912;2023-03-23T03:14:46;98084.08;;;0.65;69.22
44351;BME280;62766;62.622;17.912;2023-03-23T03:17:21;98087.72;;;0.53;68.96
44351;BME280;62766;62.622;17.912;2023-03-23T03:19:54;98088.82;;;0.58;69.00
44351;BME280;62766;62.622;17.912;2023-03-23T03:22:25;98090.22;;;0.56;68.93
44351;BME280;62766;62.622;17.912;2023-03-23T03:24:55;98095.64;;;0.67;68.94
44351;BME280;62766;62.622;17.912;2023-03-23T03:27:27;98101.79;;;0.57;68.51
44351;BME280;62766;62.622;17.912;2023-03-23T03:29:59;98106.18;;;0.66;68.16
44351;BME280;62766;62.622;17.912;2023-03-23T03:32:34;98117.01;;;0.58;68.00
44351;BME280;62766;62.622;17.912;2023-03-23T03:35:06;98122.91;;;0.50;68.04
44351;BME280;62766;62.622;17.912;2023-03-23T03:37:37;98127.55;;;0.44;68.18
44351;BME280;62766;62.622;17.912;2023-03-23T03:40:10;98130.95;;;0.47;68.42
44351;BME280;62766;62.622;17.912;2023-03-23T03:42:41;98133.96;;;0.53;68.53
44351;BME280;62766;62.622;17.912;2023-03-23T03:45:11;98142.29;;;0.50;68.25
44351;BME280;62766;62.622;17.912;2023-03-23T03:47:40;98143.76;;;0.61;68.24
44351;BME280;62766;62.622;17.912;2023-03-23T03:50:09;98150.80;;;0.56;67.91
44351;BME280;62766;62.622;17.912;2023-03-23T03:52:38;98152.02;;;0.61;67.61
44351;BME280;62766;62.622;17.912;2023-03-23T03:55:07;98156.99;;;0.66;67.31
44351;BME280;62766;62.622;17.912;2023-03-23T03:57:37;98155.89;;;0.48;67.35
44351;BME280;62766;62.622;17.912;2023-03-23T04:00:08;98164.75;;;0.53;67.24
44351;BME280;62766;62.622;17.912;2023-03-23T04:02:36;98173.19;;;0.38;67.33
44351;BME280;62766;62.622;17.912;2023-03-23T04:05:06;98183.57;;;0.37;67.53
44351;BME280;62766;62.622;17.912;2023-03-23T04:07:36;98192.07;;;0.38;67.32
44351;BME280;62766;62.622;17.912;2023-03-23T04:10:07;98194.44;;;0.34;67.25
44351;BME280;62766;62.622;17.912;2023-03-23T04:12:36;98201.14;;;0.22;67.38
44351;BME280;62766;62.622;17.912;2023-03-23T04:15:05;98201.58;;;0.25;67.51
44351;BME280;62766;62.622;17.912;2023-03-23T04:17:34;98206.04;;;0.14;67.41
44351;BME280;62766;62.622;17.912;2023-03-23T04:20:04;98206.84;;;0.26;67.21
44351;BME280;62766;62.622;17.912;2023-03-23T04:22:33;98212.44;;;0.16;67.02
44351;BME280;62766;62.622;17.912;2023-03-23T04:25:02;98218.97;;;0.32;66.95
44351;BME280;62766;62.622;17.912;2023-03-23T04:27:31;98220.44;;;0.17;66.54
44351;BME280;62766;62.622;17.912;2023-03-23T04:30:00;98230.82;;;0.30;66.20
44351;BME280;62766;62.622;17.912;2023-03-23T04:32:29;98234.97;;;0.24;66.51
44351;BME280;62766;62.622;17.912;2023-03-23T04:34:59;98241.80;;;0.36;66.15
44351;BME280;62766;62.622;17.912;2023-03-23T04:37:28;98247.95;;;0.30;66.16
44351;BME280;62766;62.622;17.912;2023-03-23T04:39:57;98254.93;;;0.45;65.93
44351;BME280;62766;62.622;17.912;2023-03-23T04:42:28;98261.98;;;0.37;66.11
44351;BME280;62766;62.622;17.912;2023-03-23T04:44:56;98268.83;;;0.24;66.26
44351;BME280;62766;62.622;17.912;2023-03-23T04:47:26;98278.51;;;0.35;66.33
44351;BME280;62766;62.622;17.912;2023-03-23T04:49:55;98278.81;;;0.25;66.19
44351;BME280;62766;62.622;17.912;2023-03-23T04:52:24;98278.04;;;0.36;65.85
44351;BME280;62766;62.622;17.912;2023-03-23T04:54:52;98284.45;;;0.24;65.66
44351;BME280;62766;62.622;17.912;2023-03-23T04:57:20;98289.72;;;0.31;65.79
44351;BME280;62766;62.622;17.912;2023-03-23T04:59:49;98298.29;;;0.29;65.57
44351;BME280;62766;62.622;17.912;2023-03-23T05:03:33;98306.79;;;0.30;65.37
44351;BME280;62766;62.622;17.912;2023-03-23T05:06:02;98315.42;;;0.12;65.33
44351;BME280;62766;62.622;17.912;2023-03-23T05:08:30;98322.16;;;0.24;65.24
44351;BME280;62766;62.622;17.912;2023-03-23T05:11:00;98326.22;;;0.37;65.22
44351;BME280;62766;62.622;17.912;2023-03-23T05:13:29;98330.14;;;0.41;64.87
44351;BME280;62766;62.622;17.912;2023-03-23T05:15:57;98336.57;;;0.44;64.52
44351;BME280;62766;62.622;17.912;2023-03-23T05:18:26;98346.83;;;0.43;64.38
44351;BME280;62766;62.622;17.912;2023-03-23T05:20:54;98353.79;;;0.41;64.49
44351;BME280;62766;62.622;17.912;2023-03-23T05:23:23;98356.78;;;0.41;64.46
44351;BME280;62766;62.622;17.912;2023-03-23T05:25:53;98361.42;;;0.50;64.41
44351;BME280;62766;62.622;17.912;2023-03-23T05:28:21;98367.55;;;0.47;63.92
44351;BME280;62766;62.622;17.912;2023-03-23T05:30:50;98364.46;;;0.50;64.05
44351;BME280;62766;62.622;17.912;2023-03-23T05:33:18;98373.47;;;0.54;63.94
44351;BME280;62766;62.622;17.912;2023-03-23T05:35:47;98373.09;;;0.69;63.85
44351;BME280;62766;62.622;17.912;2023-03-23T05:38:15;98383.05;;;0.61;63.91
44351;BME280;62766;62.622;17.912;2023-03-23T05:40:44;98387.56;;;0.73;63.20
44351;BME280;62766;62.622;17.912;2023-03-23T05:43:12;98396.13;;;0.71;62.94
44351;BME280;62766;62.622;17.912;2023-03-23T05:45:40;98404.82;;;0.70;62.55
44351;BME280;62766;62.622;17.912;2023-03-23T05:48:09;98415.93;;;0.57;62.17
44351;BME280;62766;62.622;17.912;2023-03-23T05:50:37;98422.96;;;0.55;62.20
44351;BME280;62766;62.622;17.912;2023-03-23T05:53:06;98428.12;;;0.49;61.91
44351;BME280;62766;62.622;17.912;2023-03-23T05:55:34;98434.84;;;0.55;61.42
44351;BME280;62766;62.622;17.912;2023-03-23T05:58:03;98434.78;;;0.66;61.85
44351;BME280;62766;62.622;17.912;2023-03-23T06:00:32;98444.78;;;0.73;61.90
44351;BME280;62766;62.622;17.912;2023-03-23T06:03:02;98453.40;;;0.78;61.92
44351;BME280;62766;62.622;17.912;2023-03-23T06:05:31;98464.24;;;0.93;61.59
44351;BME280;62766;62.622;17.912;2023-03-23T06:08:00;98470.09;;;0.87;60.89
44351;BME280;62766;62.622;17.912;2023-03-23T06:10:29;98479.28;;;0.85;60.58
44351;BME280;62766;62.622;17.912;2023-03-23T06:12:57;98482.93;;;0.93;60.79
44351;BME280;62766;62.622;17.912;2023-03-23T06:15:26;98489.97;;;0.87;60.80
44351;BME280;62766;62.622;17.912;2023-03-23T06:17:54;98499.16;;;0.88;60.96
44351;BME280;62766;62.622;17.912;2023-03-23T06:20:23;98510.36;;;0.94;60.79
44351;BME280;62766;62.622;17.912;2023-03-23T06:22:51;98512.19;;;0.85;59.91
44351;BME280;62766;62.622;17.912;2023-03-23T06:25:19;98518.18;;;0.70;59.73
44351;BME280;62766;62.622;17.912;2023-03-23T06:27:48;98518.81;;;0.85;59.44
44351;BME280;62766;62.622;17.912;2023-03-23T06:30:16;98527.77;;;0.84;58.79
44351;BME280;62766;62.622;17.912;2023-03-23T06:32:45;98531.00;;;0.81;58.86
44351;BME280;62766;62.622;17.912;2023-03-23T06:35:14;98530.11;;;0.87;58.98
44351;BME280;62766;62.622;17.912;2023-03-23T06:37:43;98534.07;;;0.91;58.89
44351;BME280;62766;62.622;17.912;2023-03-23T06:40:12;98536.02;;;0.85;58.97
44351;BME280;62766;62.622;17.912;2023-03-23T06:42:40;98539.75;;;0.71;58.76
44351;BME280;62766;62.622;17.912;2023-03-23T06:45:10;98541.77;;;0.83;58.92
44351;BME280;62766;62.622;17.912;2023-03-23T06:47:39;98546.38;;;0.84;59.35
44351;BME280;62766;62.622;17.912;2023-03-23T06:50:08;98551.45;;;1.12;59.27
44351;BME280;62766;62.622;17.912;2023-03-23T06:52:36;98551.82;;;1.24;58.91
44351;BME280;62766;62.622;17.912;2023-03-23T06:55:05;98556.30;;;1.20;58.80
44351;BME280;62766;62.622;17.912;2023-03-23T06:57:33;98562.65;;;1.08;58.72
44351;BME280;62766;62.622;17.912;2023-03-23T07:00:02;98571.19;;;1.04;58.72
44351;BME280;62766;62.622;17.912;2023-03-23T07:02:30;98577.73;;;1.03;58.86
44351;BME280;62766;62.622;17.912;2023-03-23T07:04:58;98582.66;;;0.93;58.65
44351;BME280;62766;62.622;17.912;2023-03-23T07:07:27;98586.16;;;1.06;58.70
44351;BME280;62766;62.622;17.912;2023-03-23T07:09:55;98589.12;;;1.12;58.07
44351;BME280;62766;62.622;17.912;2023-03-23T07:12:24;98593.26;;;0.98;57.77
44351;BME280;62766;62.622;17.912;2023-03-23T07:14:52;98592.31;;;1.06;57.32
44351;BME280;62766;62.622;17.912;2023-03-23T07:17:21;98604.95;;;1.04;56.76
44351;BME280;62766;62.622;17.912;2023-03-23T07:19:49;98609.57;;;1.03;56.71
44351;BME280;62766;62.622;17.912;2023-03-23T07:22:17;98619.97;;;1.08;56.74
44351;BME280;62766;62.622;17.912;2023-03-23T07:24:46;98625.48;;;1.10;56.46
44351;BME280;62766;62.622;17.912;2023-03-23T07:27:14;98627.00;;;1.31;56.50
44351;BME280;62766;62.622;17.912;2023-03-23T07:29:43;98629.48;;;1.44;56.10
44351;BME280;62766;62.622;17.912;2023-03-23T07:32:11;98637.04;;;1.45;56.06
44351;BME280;62766;62.622;17.912;2023-03-23T07:34:40;98636.29;;;1.59;56.14
44351;BME280;62766;62.622;17.912;2023-03-23T07:37:08;98642.24;;;1.72;56.24
44351;BME280;62766;62.622;17.912;2023-03-23T07:39:37;98647.09;;;1.83;56.01
44351;BME280;62766;62.622;17.912;2023-03-23T07:42:05;98656.84;;;1.92;55.85
44351;BME280;62766;62.622;17.912;2023-03-23T07:44:34;98660.00;;;1.93;55.45
44351;BME280;62766;62.622;17.912;2023-03-23T07:47:02;98664.38;;;1.82;55.48
44351;BME280;62766;62.622;17.912;2023-03-23T07:49:31;98668.28;;;2.06;55.35
44351;BME280;62766;62.622;17.912;2023-03-23T07:52:01;98674.21;;;2.22;55.26
44351;BME280;62766;62.622;17.912;2023-03-23T07:54:29;98678.13;;;2.35;54.99
44351;BME280;62766;62.622;17.912;2023-03-23T07:56:57;98684.38;;;2.38;54.54
44351;BME280;62766;62.622;17.912;2023-03-23T07:59:26;98684.04;;;2.41;54.43
44351;BME280;62766;62.622;17.912;2023-03-23T08:01:54;98688.04;;;2.49;53.13
44351;BME280;62766;62.622;17.912;2023-03-23T08:04:23;98691.65;;;2.44;53.25
44351;BME280;62766;62.622;17.912;2023-03-23T08:06:51;98698.60;;;2.38;52.88
44351;BME280;62766;62.622;17.912;2023-03-23T08:09:19;98703.28;;;2.57;53.15
44351;BME280;62766;62.622;17.912;2023-03-23T08:11:48;98704.67;;;2.58;52.27
44351;BME280;62766;62.622;17.912;2023-03-23T08:14:16;98703.82;;;2.64;52.09
44351;BME280;62766;62.622;17.912;2023-03-23T08:16:45;98706.88;;;2.60;51.88
44351;BME280;62766;62.622;17.912;2023-03-23T08:19:14;98709.75;;;2.56;52.25
44351;BME280;62766;62.622;17.912;2023-03-23T08:21:42;98715.23;;;2.59;52.52
44351;BME280;62766;62.622;17.912;2023-03-23T08:24:10;98720.53;;;2.71;52.76
44351;BME280;62766;62.622;17.912;2023-03-23T08:26:39;98729.84;;;2.67;52.59
44351;BME280;62766;62.622;17.912;2023-03-23T08:29:08;98740.20;;;2.90;52.61
44351;BME280;62766;62.622;17.912;2023-03-23T08:31:37;98745.01;;;2.81;52.43
44351;BME280;62766;62.622;17.912;2023-03-23T08:34:06;98744.49;;;2.82;52.30
44351;BME280;62766;62.622;17.912;2023-03-23T08:36:35;98746.51;;;2.90;51.53
44351;BME280;62766;62.622;17.912;2023-03-23T08:39:04;98751.25;;;3.05;51.48
44351;BME280;62766;62.622;17.912;2023-03-23T08:41:33;98755.51;;;2.95;50.61
44351;BME280;62766;62.622;17.912;2023-03-23T08:44:01;98763.22;;;2.91;50.16
44351;BME280;62766;62.622;17.912;2023-03-23T08:46:30;98772.01;;;2.82;50.43
44351;BME280;62766;62.622;17.912;2023-03-23T08:48:58;98774.10;;;2.80;50.75
44351;BME280;62766;62.622;17.912;2023-03-23T08:51:26;98780.89;;;3.05;50.53
44351;BME280;62766;62.622;17.912;2023-03-23T08:53:55;98784.19;;;3.39;50.21
44351;BME280;62766;62.622;17.912;2023-03-23T08:56:24;98785.97;;;3.60;49.40
44351;BME280;62766;62.622;17.912;2023-03-23T08:58:52;98790.16;;;3.49;49.18
44351;BME280;62766;62.622;17.912;2023-03-23T09:01:21;98789.39;;;3.60;48.99
44351;BME280;62766;62.622;17.912;2023-03-23T09:03:49;98789.60;;;3.66;48.73
44351;BME280;62766;62.622;17.912;2023-03-23T09:06:18;98796.15;;;3.82;48.53
44351;BME280;62766;62.622;17.912;2023-03-23T09:08:46;98803.34;;;3.90;48.43
44351;BME280;62766;62.622;17.912;2023-03-23T09:11:14;98814.79;;;4.01;48.34
44351;BME280;62766;62.622;17.912;2023-03-23T09:13:43;98820.59;;;4.33;47.90
44351;BME280;62766;62.622;17.912;2023-03-23T09:16:11;98827.15;;;4.51;46.91
44351;BME280;62766;62.622;17.912;2023-03-23T09:18:40;98834.05;;;4.41;46.05
44351;BME280;62766;62.622;17.912;2023-03-23T09:21:08;98838.26;;;4.35;46.36
44351;BME280;62766;62.622;17.912;2023-03-23T09:23:37;98842.72;;;4.36;46.01
44351;BME280;62766;62.622;17.912;2023-03-23T09:26:05;98846.36;;;4.47;45.88
44351;BME280;62766;62.622;17.912;2023-03-23T09:28:33;98849.98;;;4.31;45.96
44351;BME280;62766;62.622;17.912;2023-03-23T09:31:02;98859.43;;;3.97;45.70
44351;BME280;62766;62.622;17.912;2023-03-23T09:33:31;98866.27;;;3.97;46.31
44351;BME280;62766;62.622;17.912;2023-03-23T09:36:01;98869.56;;;4.03;46.46
44351;BME280;62766;62.622;17.912;2023-03-23T09:38:29;98876.05;;;4.06;46.58
44351;BME280;62766;62.622;17.912;2023-03-23T09:41:03;98882.53;;;4.18;46.82
44351;BME280;62766;62.622;17.912;2023-03-23T09:43:43;98889.80;;;4.10;45.81
44351;BME280;62766;62.622;17.912;2023-03-23T09:46:28;98892.34;;;4.05;46.10
44351;BME280;62766;62.622;17.912;2023-03-23T09:49:05;98895.83;;;3.93;46.54
44351;BME280;62766;62.622;17.912;2023-03-23T09:51:42;98899.19;;;4.09;46.75
44351;BME280;62766;62.622;17.912;2023-03-23T09:54:18;98893.64;;;4.17;46.75
44351;BME280;62766;62.622;17.912;2023-03-23T09:56:48;98892.38;;;4.06;45.38
44351;BME280;62766;62.622;17.912;2023-03-23T09:59:21;98893.27;;;3.79;45.25
44351;BME280;62766;62.622;17.912;2023-03-23T10:01:53;98895.73;;;3.76;45.45
44351;BME280;62766;62.622;17.912;2023-03-23T10:04:31;98895.00;;;3.70;45.70
44351;BME280;62766;62.622;17.912;2023-03-23T10:07:15;98895.10;;;3.55;45.97
44351;BME280;62766;62.622;17.912;2023-03-23T10:09:47;98899.77;;;3.55;46.25
44351;BME280;62766;62.622;17.912;2023-03-23T10:12:23;98903.91;;;3.60;46.44
44351;BME280;62766;62.622;17.912;2023-03-23T10:15:04;98907.02;;;3.76;46.32
44351;BME280;62766;62.622;17.912;2023-03-23T10:17:45;98907.83;;;4.01;46.42
44351;BME280;62766;62.622;17.912;2023-03-23T10:20:25;98910.79;;;4.07;45.55
44351;BME280;62766;62.622;17.912;2023-03-23T10:23:11;98907.96;;;3.76;45.95
44351;BME280;62766;62.622;17.912;2023-03-23T10:25:46;98914.74;;;3.76;46.78
44351;BME280;62766;62.622;17.912;2023-03-23T10:28:19;98919.40;;;3.91;46.60
44351;BME280;62766;62.622;17.912;2023-03-23T10:30:52;98922.42;;;3.97;46.08
44351;BME280;62766;62.622;17.912;2023-03-23T10:33:25;98926.09;;;3.65;46.64
44351;BME280;62766;62.622;17.912;2023-03-23T10:36:03;98934.51;;;3.52;47.33
44351;BME280;62766;62.622;17.912;2023-03-23T10:38:36;98938.93;;;3.24;48.06
44351;BME280;62766;62.622;17.912;2023-03-23T10:41:11;98941.71;;;3.05;47.41
44351;BME280;62766;62.622;17.912;2023-03-23T10:43:39;98949.39;;;3.00;47.24
44351;BME280;62766;62.622;17.912;2023-03-23T10:46:17;98958.27;;;2.84;47.31
44351;BME280;62766;62.622;17.912;2023-03-23T10:48:49;98963.01;;;2.62;47.51
44351;BME280;62766;62.622;17.912;2023-03-23T10:51:27;98961.15;;;2.75;47.66
44351;BME280;62766;62.622;17.912;2023-03-23T10:54:01;98957.08;;;2.63;47.53
44351;BME280;62766;62.622;17.912;2023-03-23T10:56:36;98961.09;;;2.61;47.46
44351;BME280;62766;62.622;17.912;2023-03-23T10:59:15;98963.75;;;2.63;47.71
44351;BME280;62766;62.622;17.912;2023-03-23T11:03:41;98972.18;;;2.72;47.72
44351;BME280;62766;62.622;17.912;2023-03-23T11:06:17;98971.91;;;2.52;47.04
44351;BME280;62766;62.622;17.912;2023-03-23T11:08:50;98975.21;;;2.71;46.94
44351;BME280;62766;62.622;17.912;2023-03-23T11:11:24;98969.83;;;2.94;46.68
44351;BME280;62766;62.622;17.912;2023-03-23T11:13:58;98980.01;;;3.03;46.69
44351;BME280;62766;62.622;17.912;2023-03-23T11:16:29;98982.38;;;2.97;46.55
44351;BME280;62766;62.622;17.912;2023-03-23T11:18:58;98986.33;;;2.84;46.43
44351;BME280;62766;62.622;17.912;2023-03-23T11:21:27;98988.88;;;2.68;46.73
44351;BME280;62766;62.622;17.912;2023-03-23T11:23:58;98987.81;;;2.64;46.71
44351;BME280;62766;62.622;17.912;2023-03-23T11:26:30;98981.59;;;2.64;47.33
44351;BME280;62766;62.622;17.912;2023-03-23T11:29:01;98989.80;;;2.81;46.88
44351;BME280;62766;62.622;17.912;2023-03-23T11:31:32;98991.15;;;2.86;46.84
44351;BME280;62766;62.622;17.912;2023-03-23T11:34:02;98988.11;;;3.01;47.05
44351;BME280;62766;62.622;17.912;2023-03-23T11:36:35;98990.71;;;3.19;47.01
44351;BME280;62766;62.622;17.912;2023-03-23T11:39:20;98991.44;;;3.11;46.82
44351;BME280;62766;62.622;17.912;2023-03-23T11:41:48;98996.08;;;3.14;46.63
44351;BME280;62766;62.622;17.912;2023-03-23T11:44:17;99003.25;;;3.19;46.57
44351;BME280;62766;62.622;17.912;2023-03-23T11:46:50;99005.04;;;2.98;46.75
44351;BME280;62766;62.622;17.912;2023-03-23T11:49:31;99009.47;;;2.91;47.06
44351;BME280;62766;62.622;17.912;2023-03-23T11:52:11;99014.06;;;2.69;47.71
44351;BME280;62766;62.622;17.912;2023-03-23T11:54:46;99013.44;;;2.77;48.14
44351;BME280;62766;62.622;17.912;2023-03-23T11:57:14;99017.18;;;2.85;48.42
44351;BME280;62766;62.622;17.912;2023-03-23T11:59:43;99014.22;;;2.89;47.99
44351;BME280;62766;62.622;17.912;2023-03-23T12:02:30;99014.96;;;2.73;47.28
44351;BME280;62766;62.622;17.912;2023-03-23T12:05:30;99021.41;;;2.42;47.40
44351;BME280;62766;62.622;17.912;2023-03-23T12:08:28;99021.16;;;2.58;47.66
44351;BME280;62766;62.622;17.912;2023-03-23T12:11:07;99024.83;;;2.69;47.43
44351;BME280;62766;62.622;17.912;2023-03-23T12:13:51;99035.61;;;2.67;47.60
44351;BME280;62766;62.622;17.912;2023-03-23T12:16:31;99033.55;;;2.64;48.19
44351;BME280;62766;62.622;17.912;2023-03-23T12:19:08;99034.20;;;2.66;48.07
44351;BME280;62766;62.622;17.912;2023-03-23T12:21:46;99034.99;;;2.55;48.01
44351;BME280;62766;62.622;17.912;2023-03-23T12:24:27;99032.36;;;2.68;48.09
44351;BME280;62766;62.622;17.912;2023-03-23T12:27:03;99034.50;;;2.69;48.24
44351;BME280;62766;62.622;17.912;2023-03-23T12:29:45;99039.99;;;2.56;47.57
44351;BME280;62766;62.622;17.912;2023-03-23T12:32:29;99039.96;;;2.40;47.71
44351;BME280;62766;62.622;17.912;2023-03-23T12:35:08;99034.82;;;2.50;47.59
44351;BME280;62766;62.622;17.912;2023-03-23T12:37:50;99035.74;;;2.53;47.78
44351;BME280;62766;62.622;17.912;2023-03-23T12:40:33;99027.22;;;2.55;47.77
44351;BME280;62766;62.622;17.912;2023-03-23T12:43:08;99027.31;;;2.35;48.26
44351;BME280;62766;62.622;17.912;2023-03-23T12:45:56;99041.14;;;2.36;48.66
44351;BME280;62766;62.622;17.912;2023-03-23T12:48:29;99058.16;;;2.29;48.34
44351;BME280;62766;62.622;17.912;2023-03-23T12:51:14;99062.43;;;1.95;48.80
44351;BME280;62766;62.622;17.912;2023-03-23T12:53:52;99061.33;;;1.77;49.56
44351;BME280;62766;62.622;17.912;2023-03-23T12:56:26;99065.62;;;1.80;49.27
44351;BME280;62766;62.622;17.912;2023-03-23T12:59:02;99067.27;;;1.71;48.78
44351;BME280;62766;62.622;17.912;2023-03-23T13:01:34;99076.87;;;1.54;49.31
44351;BME280;62766;62.622;17.912;2023-03-23T13:04:07;99085.68;;;1.32;49.83
44351;BME280;62766;62.622;17.912;2023-03-23T13:06:38;99091.12;;;1.35;50.38
44351;BME280;62766;62.622;17.912;2023-03-23T13:09:12;99093.80;;;1.30;50.81
44351;BME280;62766;62.622;17.912;2023-03-23T13:11:44;99091.33;;;1.18;50.94
44351;BME280;62766;62.622;17.912;2023-03-23T13:14:23;99087.88;;;1.33;51.08
44351;BME280;62766;62.622;17.912;2023-03-23T13:17:00;99081.65;;;1.19;50.37
44351;BME280;62766;62.622;17.912;2023-03-23T13:19:41;99073.10;;;1.27;50.44
44351;BME280;62766;62.622;17.912;2023-03-23T13:22:17;99066.15;;;1.50;49.86
44351;BME280;62766;62.622;17.912;2023-03-23T13:24:52;99062.46;;;1.54;49.62
44351;BME280;62766;62.622;17.912;2023-03-23T13:27:24;99063.36;;;1.66;49.89
44351;BME280;62766;62.622;17.912;2023-03-23T13:29:53;99062.87;;;1.98;50.04